sensor_id;sensor_type;location;lat;lon;timestamp;temperature;humidity
29453;DHT22;16424;50.956;5.320;2023-08-17T00:01:27;20.90;99.90
29453;DHT22;16424;50.956;5.320;2023-08-17T00:03:53;20.90;99.90
29453;DHT22;16424;50.956;5.320;2023-08-17T00:06:19;20.90;99.90
29453;DHT22;16424;50.956;5.320;2023-08-17T00:08:44;20.90;99.90
29453;DHT22;16424;50.956;5.320;2023-08-17T00:11:10;20.90;99.90
29453;DHT22;16424;50.956;5.320;2023-08-17T00:13:36;20.90;99.90
29453;DHT22;16424;50.956;5.320;2023-08-17T00:16:01;20.80;99.90
29453;DHT22;16424;50.956;5.320;2023-08-17T00:18:27;20.80;99.90
29453;DHT22;16424;50.956;5.320;2023-08-17T00:20:53;20.80;99.90
29453;DHT22;16424;50.956;5.320;2023-08-17T00:23:19;20.80;99.90
29453;DHT22;16424;50.956;5.320;2023-08-17T00:25:47;20.80;99.90
29453;DHT22;16424;50.956;5.320;2023-08-17T00:28:13;20.70;99.90
29453;DHT22;16424;50.956;5.320;2023-08-17T00:30:39;20.70;99.90
29453;DHT22;16424;50.956;5.320;2023-08-17T00:33:05;20.70;99.90
29453;DHT22;16424;50.956;5.320;2023-08-17T00:35:31;20.70;99.90
29453;DHT22;16424;50.956;5.320;2023-08-17T00:37:58;20.60;99.90
29453;DHT22;16424;50.956;5.320;2023-08-17T00:40:24;20.60;99.90
29453;DHT22;16424;50.956;5.320;2023-08-17T00:42:50;20.50;99.90
29453;DHT22;16424;50.956;5.320;2023-08-17T00:45:17;20.50;99.90
29453;DHT22;16424;50.956;5.320;2023-08-17T00:47:43;20.40;99.90
29453;DHT22;16424;50.956;5.320;2023-08-17T00:50:10;20.50;99.90
29453;DHT22;16424;50.956;5.320;2023-08-17T00:52:37;20.50;99.90
29453;DHT22;16424;50.956;5.320;2023-08-17T00:55:03;20.40;99.90
29453;DHT22;16424;50.956;5.320;2023-08-17T00:57:31;20.40;99.90
29453;DHT22;16424;50.956;5.320;2023-08-17T00:59:58;20.40;99.90
29453;DHT22;16424;50.956;5.320;2023-08-17T01:02:24;20.30;99.90
29453;DHT22;16424;50.956;5.320;2023-08-17T01:04:50;20.40;99.90
29453;DHT22;16424;50.956;5.320;2023-08-17T01:07:16;20.40;99.90
29453;DHT22;16424;50.956;5.320;2023-08-17T01:09:42;20.40;99.90
29453;DHT22;16424;50.956;5.320;2023-08-17T01:12:25;20.30;99.90
29453;DHT22;16424;50.956;5.320;2023-08-17T01:15:10;20.30;99.90
29453;DHT22;16424;50.956;5.320;2023-08-17T01:17:58;20.30;99.90
29453;DHT22;16424;50.956;5.320;2023-08-17T01:20:24;20.40;99.90
29453;DHT22;16424;50.956;5.320;2023-08-17T01:22:52;20.40;99.90
29453;DHT22;16424;50.956;5.320;2023-08-17T01:25:22;20.40;99.90
29453;DHT22;16424;50.956;5.320;2023-08-17T01:27:48;20.40;99.90
29453;DHT22;16424;50.956;5.320;2023-08-17T01:30:16;20.40;99.90
29453;DHT22;16424;50.956;5.320;2023-08-17T01:32:55;20.40;99.90
29453;DHT22;16424;50.956;5.320;2023-08-17T01:35:38;20.50;99.90
29453;DHT22;16424;50.956;5.320;2023-08-17T01:38:09;20.50;99.90
29453;DHT22;16424;50.956;5.320;2023-08-17T01:40:37;20.50;99.90
29453;DHT22;16424;50.956;5.320;2023-08-17T01:43:03;20.50;99.90
29453;DHT22;16424;50.956;5.320;2023-08-17T01:45:29;20.60;99.90
29453;DHT22;16424;50.956;5.320;2023-08-17T01:47:55;20.60;99.90
29453;DHT22;16424;50.956;5.320;2023-08-17T01:50:21;20.50;99.90
29453;DHT22;16424;50.956;5.320;2023-08-17T01:52:47;20.50;99.90
29453;DHT22;16424;50.956;5.320;2023-08-17T01:55:12;20.50;99.90
29453;DHT22;16424;50.956;5.320;2023-08-17T01:57:38;20.50;99.90
29453;DHT22;16424;50.956;5.320;2023-08-17T02:00:04;20.50;99.90
29453;DHT22;16424;50.956;5.320;2023-08-17T02:02:31;20.50;99.90
29453;DHT22;16424;50.956;5.320;2023-08-17T02:04:57;20.50;99.90
29453;DHT22;16424;50.956;5.320;2023-08-17T02:07:22;20.40;99.90
29453;DHT22;16424;50.956;5.320;2023-08-17T02:09:48;20.40;99.90
29453;DHT22;16424;50.956;5.320;2023-08-17T02:12:14;20.40;99.90
29453;DHT22;16424;50.956;5.320;2023-08-17T02:14:39;20.40;99.90
29453;DHT22;16424;50.956;5.320;2023-08-17T02:17:05;20.40;99.90
29453;DHT22;16424;50.956;5.320;2023-08-17T02:19:31;20.50;99.90
29453;DHT22;16424;50.956;5.320;2023-08-17T02:21:58;20.50;99.90
29453;DHT22;16424;50.956;5.320;2023-08-17T02:24:24;20.50;99.90
29453;DHT22;16424;50.956;5.320;2023-08-17T02:26:50;20.40;99.90
29453;DHT22;16424;50.956;5.320;2023-08-17T02:29:16;20.50;99.90
29453;DHT22;16424;50.956;5.320;2023-08-17T02:31:41;20.50;99.90
29453;DHT22;16424;50.956;5.320;2023-08-17T02:34:07;20.40;99.90
29453;DHT22;16424;50.956;5.320;2023-08-17T02:36:33;20.40;99.90
29453;DHT22;16424;50.956;5.320;2023-08-17T02:38:59;20.30;99.90
29453;DHT22;16424;50.956;5.320;2023-08-17T02:41:25;20.30;99.90
29453;DHT22;16424;50.956;5.320;2023-08-17T02:43:50;20.30;99.90
29453;DHT22;16424;50.956;5.320;2023-08-17T02:46:16;20.20;99.90
29453;DHT22;16424;50.956;5.320;2023-08-17T02:48:42;20.20;99.90
29453;DHT22;16424;50.956;5.320;2023-08-17T02:51:07;20.30;99.90
29453;DHT22;16424;50.956;5.320;2023-08-17T02:53:33;20.20;99.90
29453;DHT22;16424;50.956;5.320;2023-08-17T02:55:59;20.30;99.90
29453;DHT22;16424;50.956;5.320;2023-08-17T02:58:24;20.30;99.90
29453;DHT22;16424;50.956;5.320;2023-08-17T03:00:53;20.30;99.90
29453;DHT22;16424;50.956;5.320;2023-08-17T03:03:19;20.20;99.90
29453;DHT22;16424;50.956;5.320;2023-08-17T03:05:44;20.20;99.90
29453;DHT22;16424;50.956;5.320;2023-08-17T03:08:10;20.20;99.90
29453;DHT22;16424;50.956;5.320;2023-08-17T03:10:37;20.20;99.90
29453;DHT22;16424;50.956;5.320;2023-08-17T03:13:03;20.20;99.90
29453;DHT22;16424;50.956;5.320;2023-08-17T03:15:28;20.10;99.90
29453;DHT22;16424;50.956;5.320;2023-08-17T03:17:54;20.00;99.90
29453;DHT22;16424;50.956;5.320;2023-08-17T03:20:20;20.00;99.90
29453;DHT22;16424;50.956;5.320;2023-08-17T03:22:45;20.00;99.90
29453;DHT22;16424;50.956;5.320;2023-08-17T03:25:11;19.90;99.90
29453;DHT22;16424;50.956;5.320;2023-08-17T03:27:37;19.90;99.90
29453;DHT22;16424;50.956;5.320;2023-08-17T03:30:04;19.90;99.90
29453;DHT22;16424;50.956;5.320;2023-08-17T03:32:29;19.90;99.90
29453;DHT22;16424;50.956;5.320;2023-08-17T03:34:55;19.80;99.90
29453;DHT22;16424;50.956;5.320;2023-08-17T03:37:21;19.90;99.90
29453;DHT22;16424;50.956;5.320;2023-08-17T03:39:47;19.90;99.90
29453;DHT22;16424;50.956;5.320;2023-08-17T03:42:12;19.90;99.90
29453;DHT22;16424;50.956;5.320;2023-08-17T03:44:38;19.90;99.90
29453;DHT22;16424;50.956;5.320;2023-08-17T03:47:04;19.90;99.90
29453;DHT22;16424;50.956;5.320;2023-08-17T03:49:29;19.90;99.90
29453;DHT22;16424;50.956;5.320;2023-08-17T03:51:55;19.90;99.90
29453;DHT22;16424;50.956;5.320;2023-08-17T03:54:20;19.90;99.90
29453;DHT22;16424;50.956;5.320;2023-08-17T03:56:46;19.90;99.90
29453;DHT22;16424;50.956;5.320;2023-08-17T03:59:13;19.80;99.90
29453;DHT22;16424;50.956;5.320;2023-08-17T04:01:39;19.80;99.90
29453;DHT22;16424;50.956;5.320;2023-08-17T04:04:05;19.70;99.90
29453;DHT22;16424;50.956;5.320;2023-08-17T04:06:31;19.70;99.90
29453;DHT22;16424;50.956;5.320;2023-08-17T04:08:56;19.80;99.90
29453;DHT22;16424;50.956;5.320;2023-08-17T04:11:22;19.80;99.90
29453;DHT22;16424;50.956;5.320;2023-08-17T04:13:48;19.80;99.90
29453;DHT22;16424;50.956;5.320;2023-08-17T04:16:13;19.80;99.90
29453;DHT22;16424;50.956;5.320;2023-08-17T04:18:39;19.80;99.90
29453;DHT22;16424;50.956;5.320;2023-08-17T04:21:05;19.70;99.90
29453;DHT22;16424;50.956;5.320;2023-08-17T04:23:30;19.80;99.90
29453;DHT22;16424;50.956;5.320;2023-08-17T04:25:56;19.80;99.90
29453;DHT22;16424;50.956;5.320;2023-08-17T04:28:21;19.70;99.90
29453;DHT22;16424;50.956;5.320;2023-08-17T04:30:47;19.60;99.90
29453;DHT22;16424;50.956;5.320;2023-08-17T04:33:13;19.60;99.90
29453;DHT22;16424;50.956;5.320;2023-08-17T04:35:39;19.60;99.90
29453;DHT22;16424;50.956;5.320;2023-08-17T04:38:04;19.60;99.90
29453;DHT22;16424;50.956;5.320;2023-08-17T04:40:30;19.60;99.90
29453;DHT22;16424;50.956;5.320;2023-08-17T04:42:56;19.60;99.90
29453;DHT22;16424;50.956;5.320;2023-08-17T04:45:22;19.50;99.90
29453;DHT22;16424;50.956;5.320;2023-08-17T04:47:48;19.50;99.90
29453;DHT22;16424;50.956;5.320;2023-08-17T04:50:15;19.40;99.90
29453;DHT22;16424;50.956;5.320;2023-08-17T04:52:43;19.30;99.90
29453;DHT22;16424;50.956;5.320;2023-08-17T04:55:09;19.20;99.90
29453;DHT22;16424;50.956;5.320;2023-08-17T04:57:34;19.20;99.90
29453;DHT22;16424;50.956;5.320;2023-08-17T05:00:00;19.30;99.90
29453;DHT22;16424;50.956;5.320;2023-08-17T05:02:26;19.30;99.90
29453;DHT22;16424;50.956;5.320;2023-08-17T05:04:51;19.30;99.90
29453;DHT22;16424;50.956;5.320;2023-08-17T05:07:17;19.20;99.90
29453;DHT22;16424;50.956;5.320;2023-08-17T05:09:43;19.20;99.90
29453;DHT22;16424;50.956;5.320;2023-08-17T05:12:08;19.40;99.90
29453;DHT22;16424;50.956;5.320;2023-08-17T05:14:34;19.50;99.90
29453;DHT22;16424;50.956;5.320;2023-08-17T05:16:59;19.60;99.90
29453;DHT22;16424;50.956;5.320;2023-08-17T05:19:25;19.60;99.90
29453;DHT22;16424;50.956;5.320;2023-08-17T05:21:51;19.60;99.90
29453;DHT22;16424;50.956;5.320;2023-08-17T05:24:17;19.50;99.90
29453;DHT22;16424;50.956;5.320;2023-08-17T05:26:43;19.50;99.90
29453;DHT22;16424;50.956;5.320;2023-08-17T05:29:09;19.60;99.90
29453;DHT22;16424;50.956;5.320;2023-08-17T05:31:35;19.60;99.90
29453;DHT22;16424;50.956;5.320;2023-08-17T05:34:00;19.50;99.90
29453;DHT22;16424;50.956;5.320;2023-08-17T05:36:26;19.40;99.90
29453;DHT22;16424;50.956;5.320;2023-08-17T05:38:51;19.30;99.90
29453;DHT22;16424;50.956;5.320;2023-08-17T05:41:17;19.20;99.90
29453;DHT22;16424;50.956;5.320;2023-08-17T05:43:43;19.10;99.90
29453;DHT22;16424;50.956;5.320;2023-08-17T05:46:09;19.10;99.90
29453;DHT22;16424;50.956;5.320;2023-08-17T05:48:34;19.20;99.90
29453;DHT22;16424;50.956;5.320;2023-08-17T05:51:00;19.00;99.90
29453;DHT22;16424;50.956;5.320;2023-08-17T05:53:25;19.10;99.90
29453;DHT22;16424;50.956;5.320;2023-08-17T05:55:51;19.00;99.90
29453;DHT22;16424;50.956;5.320;2023-08-17T05:58:17;19.00;99.90
29453;DHT22;16424;50.956;5.320;2023-08-17T06:00:42;19.00;99.90
29453;DHT22;16424;50.956;5.320;2023-08-17T06:03:08;18.90;99.90
29453;DHT22;16424;50.956;5.320;2023-08-17T06:05:34;18.90;99.90
29453;DHT22;16424;50.956;5.320;2023-08-17T06:08:00;18.80;99.90
29453;DHT22;16424;50.956;5.320;2023-08-17T06:10:26;18.90;99.90
29453;DHT22;16424;50.956;5.320;2023-08-17T06:12:55;18.90;99.90
29453;DHT22;16424;50.956;5.320;2023-08-17T06:15:22;18.90;99.90
29453;DHT22;16424;50.956;5.320;2023-08-17T06:17:48;18.80;99.90
29453;DHT22;16424;50.956;5.320;2023-08-17T06:20:15;18.90;99.90
29453;DHT22;16424;50.956;5.320;2023-08-17T06:22:41;18.90;99.90
29453;DHT22;16424;50.956;5.320;2023-08-17T06:25:08;19.00;99.90
29453;DHT22;16424;50.956;5.320;2023-08-17T06:27:35;19.10;99.90
29453;DHT22;16424;50.956;5.320;2023-08-17T06:30:02;19.20;99.90
29453;DHT22;16424;50.956;5.320;2023-08-17T06:32:28;19.10;99.90
29453;DHT22;16424;50.956;5.320;2023-08-17T06:34:54;19.20;99.90
29453;DHT22;16424;50.956;5.320;2023-08-17T06:37:20;19.10;99.90
29453;DHT22;16424;50.956;5.320;2023-08-17T06:39:45;19.20;99.90
29453;DHT22;16424;50.956;5.320;2023-08-17T06:42:11;19.10;99.90
29453;DHT22;16424;50.956;5.320;2023-08-17T06:44:37;19.10;99.90
29453;DHT22;16424;50.956;5.320;2023-08-17T06:47:03;19.10;99.90
29453;DHT22;16424;50.956;5.320;2023-08-17T06:49:28;18.90;99.90
29453;DHT22;16424;50.956;5.320;2023-08-17T06:51:54;18.90;99.90
29453;DHT22;16424;50.956;5.320;2023-08-17T06:54:20;18.90;99.90
29453;DHT22;16424;50.956;5.320;2023-08-17T06:56:45;18.80;99.90
29453;DHT22;16424;50.956;5.320;2023-08-17T06:59:11;18.80;99.90
29453;DHT22;16424;50.956;5.320;2023-08-17T07:01:36;18.80;99.90
29453;DHT22;16424;50.956;5.320;2023-08-17T07:04:02;18.80;99.90
29453;DHT22;16424;50.956;5.320;2023-08-17T07:06:28;19.00;99.90
29453;DHT22;16424;50.956;5.320;2023-08-17T07:08:54;19.10;99.90
29453;DHT22;16424;50.956;5.320;2023-08-17T07:11:20;19.10;99.90
29453;DHT22;16424;50.956;5.320;2023-08-17T07:13:46;19.20;99.90
29453;DHT22;16424;50.956;5.320;2023-08-17T07:16:12;19.20;99.90
29453;DHT22;16424;50.956;5.320;2023-08-17T07:18:38;19.40;99.90
29453;DHT22;16424;50.956;5.320;2023-08-17T07:21:03;19.40;99.90
29453;DHT22;16424;50.956;5.320;2023-08-17T07:23:29;19.40;99.90
29453;DHT22;16424;50.956;5.320;2023-08-17T07:25:54;19.30;99.90
29453;DHT22;16424;50.956;5.320;2023-08-17T07:28:20;19.30;99.90
29453;DHT22;16424;50.956;5.320;2023-08-17T07:30:46;19.40;99.90
29453;DHT22;16424;50.956;5.320;2023-08-17T07:33:11;19.30;99.90
29453;DHT22;16424;50.956;5.320;2023-08-17T07:35:37;19.40;99.90
29453;DHT22;16424;50.956;5.320;2023-08-17T07:38:03;19.50;99.90
29453;DHT22;16424;50.956;5.320;2023-08-17T07:40:28;19.50;99.90
29453;DHT22;16424;50.956;5.320;2023-08-17T07:42:54;19.40;99.90
29453;DHT22;16424;50.956;5.320;2023-08-17T07:45:20;19.50;99.90
29453;DHT22;16424;50.956;5.320;2023-08-17T07:47:45;19.70;99.90
29453;DHT22;16424;50.956;5.320;2023-08-17T07:50:11;19.80;99.90
29453;DHT22;16424;50.956;5.320;2023-08-17T07:52:37;20.00;99.90
29453;DHT22;16424;50.956;5.320;2023-08-17T07:55:03;20.10;99.90
29453;DHT22;16424;50.956;5.320;2023-08-17T07:57:28;20.20;99.90
29453;DHT22;16424;50.956;5.320;2023-08-17T07:59:54;20.20;99.90
29453;DHT22;16424;50.956;5.320;2023-08-17T08:02:20;20.10;99.90
29453;DHT22;16424;50.956;5.320;2023-08-17T08:04:45;19.90;99.90
29453;DHT22;16424;50.956;5.320;2023-08-17T08:07:11;19.90;99.90
29453;DHT22;16424;50.956;5.320;2023-08-17T08:09:37;20.00;99.90
29453;DHT22;16424;50.956;5.320;2023-08-17T08:12:03;20.20;99.90
29453;DHT22;16424;50.956;5.320;2023-08-17T08:14:29;20.30;99.90
29453;DHT22;16424;50.956;5.320;2023-08-17T08:16:55;20.50;99.90
29453;DHT22;16424;50.956;5.320;2023-08-17T08:19:20;20.60;99.90
29453;DHT22;16424;50.956;5.320;2023-08-17T08:21:46;20.60;99.90
29453;DHT22;16424;50.956;5.320;2023-08-17T08:24:12;20.60;99.90
29453;DHT22;16424;50.956;5.320;2023-08-17T08:26:37;20.50;99.90
29453;DHT22;16424;50.956;5.320;2023-08-17T08:29:03;20.60;99.90
29453;DHT22;16424;50.956;5.320;2023-08-17T08:31:29;20.60;99.90
29453;DHT22;16424;50.956;5.320;2023-08-17T08:33:54;20.70;99.90
29453;DHT22;16424;50.956;5.320;2023-08-17T08:36:20;20.90;99.90
29453;DHT22;16424;50.956;5.320;2023-08-17T08:38:46;20.90;99.90
29453;DHT22;16424;50.956;5.320;2023-08-17T08:41:11;20.90;99.90
29453;DHT22;16424;50.956;5.320;2023-08-17T08:43:38;21.10;99.90
29453;DHT22;16424;50.956;5.320;2023-08-17T08:46:04;21.50;99.90
29453;DHT22;16424;50.956;5.320;2023-08-17T08:48:31;21.70;99.90
29453;DHT22;16424;50.956;5.320;2023-08-17T08:50:59;21.50;99.90
29453;DHT22;16424;50.956;5.320;2023-08-17T08:53:35;21.10;99.90
29453;DHT22;16424;50.956;5.320;2023-08-17T08:56:03;21.00;99.90
29453;DHT22;16424;50.956;5.320;2023-08-17T08:58:31;21.10;99.90
29453;DHT22;16424;50.956;5.320;2023-08-17T09:00:57;21.00;99.90
29453;DHT22;16424;50.956;5.320;2023-08-17T09:03:24;20.90;99.90
29453;DHT22;16424;50.956;5.320;2023-08-17T09:05:51;21.00;99.90
29453;DHT22;16424;50.956;5.320;2023-08-17T09:08:21;21.00;99.90
29453;DHT22;16424;50.956;5.320;2023-08-17T09:10:48;21.10;99.90
29453;DHT22;16424;50.956;5.320;2023-08-17T09:13:14;21.00;99.90
29453;DHT22;16424;50.956;5.320;2023-08-17T09:15:40;21.00;99.90
29453;DHT22;16424;50.956;5.320;2023-08-17T09:18:06;21.10;99.90
29453;DHT22;16424;50.956;5.320;2023-08-17T09:20:42;20.90;99.90
29453;DHT22;16424;50.956;5.320;2023-08-17T09:23:21;20.90;99.90
29453;DHT22;16424;50.956;5.320;2023-08-17T09:25:49;21.00;99.90
29453;DHT22;16424;50.956;5.320;2023-08-17T09:28:18;21.10;99.90
29453;DHT22;16424;50.956;5.320;2023-08-17T09:30:56;21.20;99.90
29453;DHT22;16424;50.956;5.320;2023-08-17T09:33:26;21.20;99.90
29453;DHT22;16424;50.956;5.320;2023-08-17T09:35:54;21.50;99.90
29453;DHT22;16424;50.956;5.320;2023-08-17T09:38:20;21.60;99.90
29453;DHT22;16424;50.956;5.320;2023-08-17T09:40:46;21.80;99.90
29453;DHT22;16424;50.956;5.320;2023-08-17T09:43:14;21.90;99.90
29453;DHT22;16424;50.956;5.320;2023-08-17T09:45:39;22.00;99.90
29453;DHT22;16424;50.956;5.320;2023-08-17T09:48:07;22.20;99.90
29453;DHT22;16424;50.956;5.320;2023-08-17T09:50:34;22.00;99.90
29453;DHT22;16424;50.956;5.320;2023-08-17T09:53:00;21.60;99.90
29453;DHT22;16424;50.956;5.320;2023-08-17T09:55:26;21.50;99.90
29453;DHT22;16424;50.956;5.320;2023-08-17T09:57:52;21.40;99.90
29453;DHT22;16424;50.956;5.320;2023-08-17T10:00:19;21.60;99.90
29453;DHT22;16424;50.956;5.320;2023-08-17T10:02:49;21.80;99.90
29453;DHT22;16424;50.956;5.320;2023-08-17T10:05:18;21.80;99.90
29453;DHT22;16424;50.956;5.320;2023-08-17T10:07:47;21.60;99.90
29453;DHT22;16424;50.956;5.320;2023-08-17T10:10:16;21.50;99.90
29453;DHT22;16424;50.956;5.320;2023-08-17T10:12:48;21.50;99.90
29453;DHT22;16424;50.956;5.320;2023-08-17T10:15:18;21.60;99.90
29453;DHT22;16424;50.956;5.320;2023-08-17T10:18:08;21.70;99.90
29453;DHT22;16424;50.956;5.320;2023-08-17T10:20:36;21.80;99.90
29453;DHT22;16424;50.956;5.320;2023-08-17T10:23:15;21.80;99.90
29453;DHT22;16424;50.956;5.320;2023-08-17T10:25:42;21.80;99.90
29453;DHT22;16424;50.956;5.320;2023-08-17T10:28:12;21.90;99.90
29453;DHT22;16424;50.956;5.320;2023-08-17T10:30:39;21.80;99.90
29453;DHT22;16424;50.956;5.320;2023-08-17T10:33:06;21.80;99.90
29453;DHT22;16424;50.956;5.320;2023-08-17T10:35:33;21.70;99.90
29453;DHT22;16424;50.956;5.320;2023-08-17T10:37:59;21.80;99.90
29453;DHT22;16424;50.956;5.320;2023-08-17T10:40:26;22.00;99.90
29453;DHT22;16424;50.956;5.320;2023-08-17T10:42:56;22.00;99.90
29453;DHT22;16424;50.956;5.320;2023-08-17T10:45:25;21.80;99.90
29453;DHT22;16424;50.956;5.320;2023-08-17T10:50:38;22.00;99.90
29453;DHT22;16424;50.956;5.320;2023-08-17T10:53:11;22.30;99.90
29453;DHT22;16424;50.956;5.320;2023-08-17T10:55:42;22.10;99.90
29453;DHT22;16424;50.956;5.320;2023-08-17T10:58:09;22.00;99.90
29453;DHT22;16424;50.956;5.320;2023-08-17T11:00:37;22.00;99.90
29453;DHT22;16424;50.956;5.320;2023-08-17T11:03:14;21.90;99.90
29453;DHT22;16424;50.956;5.320;2023-08-17T11:05:46;22.10;99.90
29453;DHT22;16424;50.956;5.320;2023-08-17T11:11:01;22.20;99.90
29453;DHT22;16424;50.956;5.320;2023-08-17T11:13:28;22.40;99.90
29453;DHT22;16424;50.956;5.320;2023-08-17T11:15:55;22.40;99.90
29453;DHT22;16424;50.956;5.320;2023-08-17T11:18:20;22.50;99.90
29453;DHT22;16424;50.956;5.320;2023-08-17T11:20:47;22.50;99.90
29453;DHT22;16424;50.956;5.320;2023-08-17T11:23:14;22.40;99.90
29453;DHT22;16424;50.956;5.320;2023-08-17T11:25:41;22.20;99.90
29453;DHT22;16424;50.956;5.320;2023-08-17T11:28:07;22.10;99.90
29453;DHT22;16424;50.956;5.320;2023-08-17T11:30:36;22.00;99.90
29453;DHT22;16424;50.956;5.320;2023-08-17T11:33:05;22.00;99.90
29453;DHT22;16424;50.956;5.320;2023-08-17T11:35:31;22.00;99.90
29453;DHT22;16424;50.956;5.320;2023-08-17T11:37:57;22.20;99.90
29453;DHT22;16424;50.956;5.320;2023-08-17T11:40:23;22.40;99.90
29453;DHT22;16424;50.956;5.320;2023-08-17T11:42:50;22.40;99.90
29453;DHT22;16424;50.956;5.320;2023-08-17T11:45:16;22.40;99.90
29453;DHT22;16424;50.956;5.320;2023-08-17T11:47:42;22.40;99.90
29453;DHT22;16424;50.956;5.320;2023-08-17T11:50:10;22.60;99.90
29453;DHT22;16424;50.956;5.320;2023-08-17T11:52:36;22.70;99.90
29453;DHT22;16424;50.956;5.320;2023-08-17T11:55:06;22.80;99.90
29453;DHT22;16424;50.956;5.320;2023-08-17T11:57:32;22.70;99.90
29453;DHT22;16424;50.956;5.320;2023-08-17T12:00:00;22.70;99.90
29453;DHT22;16424;50.956;5.320;2023-08-17T12:02:27;22.50;99.90
29453;DHT22;16424;50.956;5.320;2023-08-17T12:04:54;22.10;99.90
29453;DHT22;16424;50.956;5.320;2023-08-17T12:07:24;22.00;99.90
29453;DHT22;16424;50.956;5.320;2023-08-17T12:09:50;21.80;99.90
29453;DHT22;16424;50.956;5.320;2023-08-17T12:12:22;21.80;99.90
29453;DHT22;16424;50.956;5.320;2023-08-17T12:14:48;22.10;99.90
29453;DHT22;16424;50.956;5.320;2023-08-17T12:17:18;22.30;99.90
29453;DHT22;16424;50.956;5.320;2023-08-17T12:19:49;22.20;99.90
29453;DHT22;16424;50.956;5.320;2023-08-17T12:22:15;22.10;99.90
29453;DHT22;16424;50.956;5.320;2023-08-17T12:24:41;22.00;99.90
29453;DHT22;16424;50.956;5.320;2023-08-17T12:27:07;22.00;99.90
29453;DHT22;16424;50.956;5.320;2023-08-17T12:29:33;22.00;99.90
29453;DHT22;16424;50.956;5.320;2023-08-17T12:32:02;21.80;99.90
29453;DHT22;16424;50.956;5.320;2023-08-17T12:34:28;21.70;99.90
29453;DHT22;16424;50.956;5.320;2023-08-17T12:36:53;21.80;99.90
29453;DHT22;16424;50.956;5.320;2023-08-17T12:39:22;21.90;99.90
29453;DHT22;16424;50.956;5.320;2023-08-17T12:41:47;22.30;99.90
29453;DHT22;16424;50.956;5.320;2023-08-17T12:44:13;22.00;99.90
29453;DHT22;16424;50.956;5.320;2023-08-17T12:46:40;22.10;99.90
29453;DHT22;16424;50.956;5.320;2023-08-17T12:49:06;22.20;99.90
29453;DHT22;16424;50.956;5.320;2023-08-17T12:51:31;22.50;99.90
29453;DHT22;16424;50.956;5.320;2023-08-17T12:53:57;22.70;99.90
29453;DHT22;16424;50.956;5.320;2023-08-17T12:56:23;22.50;99.90
29453;DHT22;16424;50.956;5.320;2023-08-17T12:58:48;22.40;99.90
29453;DHT22;16424;50.956;5.320;2023-08-17T13:01:14;22.50;99.90
29453;DHT22;16424;50.956;5.320;2023-08-17T13:03:40;22.60;99.90
29453;DHT22;16424;50.956;5.320;2023-08-17T13:06:06;22.80;99.90
29453;DHT22;16424;50.956;5.320;2023-08-17T13:08:32;22.80;99.90
29453;DHT22;16424;50.956;5.320;2023-08-17T13:10:58;23.00;99.90
29453;DHT22;16424;50.956;5.320;2023-08-17T13:13:23;23.10;99.90
29453;DHT22;16424;50.956;5.320;2023-08-17T13:15:49;23.20;99.90
29453;DHT22;16424;50.956;5.320;2023-08-17T13:18:15;23.30;99.90
29453;DHT22;16424;50.956;5.320;2023-08-17T13:20:41;23.40;99.90
29453;DHT22;16424;50.956;5.320;2023-08-17T13:23:07;23.70;99.90
29453;DHT22;16424;50.956;5.320;2023-08-17T13:25:32;23.80;99.90
29453;DHT22;16424;50.956;5.320;2023-08-17T13:27:58;23.80;99.90
29453;DHT22;16424;50.956;5.320;2023-08-17T13:30:23;23.70;99.90
29453;DHT22;16424;50.956;5.320;2023-08-17T13:32:50;23.70;99.90
29453;DHT22;16424;50.956;5.320;2023-08-17T13:35:16;23.50;99.90
29453;DHT22;16424;50.956;5.320;2023-08-17T13:37:41;23.50;99.90
29453;DHT22;16424;50.956;5.320;2023-08-17T13:40:07;23.40;99.90
29453;DHT22;16424;50.956;5.320;2023-08-17T13:42:34;23.10;99.90
29453;DHT22;16424;50.956;5.320;2023-08-17T13:45:00;23.00;99.90
29453;DHT22;16424;50.956;5.320;2023-08-17T13:47:25;22.90;99.90
29453;DHT22;16424;50.956;5.320;2023-08-17T13:49:51;22.90;99.90
29453;DHT22;16424;50.956;5.320;2023-08-17T13:52:17;22.70;99.90
29453;DHT22;16424;50.956;5.320;2023-08-17T13:54:43;22.40;99.90
29453;DHT22;16424;50.956;5.320;2023-08-17T13:57:09;22.30;99.90
29453;DHT22;16424;50.956;5.320;2023-08-17T13:59:34;22.30;99.90
29453;DHT22;16424;50.956;5.320;2023-08-17T14:02:00;22.50;99.90
29453;DHT22;16424;50.956;5.320;2023-08-17T14:04:26;22.50;99.90
29453;DHT22;16424;50.956;5.320;2023-08-17T14:06:51;22.40;99.90
29453;DHT22;16424;50.956;5.320;2023-08-17T14:09:17;22.40;99.90
29453;DHT22;16424;50.956;5.320;2023-08-17T14:11:43;22.40;99.90
29453;DHT22;16424;50.956;5.320;2023-08-17T14:14:08;22.50;99.90
29453;DHT22;16424;50.956;5.320;2023-08-17T14:16:35;22.40;99.90
29453;DHT22;16424;50.956;5.320;2023-08-17T14:19:01;22.60;99.90
29453;DHT22;16424;50.956;5.320;2023-08-17T14:21:26;22.70;99.90
29453;DHT22;16424;50.956;5.320;2023-08-17T14:23:52;22.50;99.90
29453;DHT22;16424;50.956;5.320;2023-08-17T14:26:18;22.60;99.90
29453;DHT22;16424;50.956;5.320;2023-08-17T14:28:43;22.50;99.90
29453;DHT22;16424;50.956;5.320;2023-08-17T14:31:09;22.60;99.90
29453;DHT22;16424;50.956;5.320;2023-08-17T14:33:37;22.90;99.90
29453;DHT22;16424;50.956;5.320;2023-08-17T14:36:03;22.90;99.90
29453;DHT22;16424;50.956;5.320;2023-08-17T14:38:28;22.90;99.90
29453;DHT22;16424;50.956;5.320;2023-08-17T14:40:54;22.90;99.90
29453;DHT22;16424;50.956;5.320;2023-08-17T14:43:20;23.00;99.90
29453;DHT22;16424;50.956;5.320;2023-08-17T14:45:46;23.00;99.90
29453;DHT22;16424;50.956;5.320;2023-08-17T14:48:12;22.80;99.90
29453;DHT22;16424;50.956;5.320;2023-08-17T14:50:38;22.80;99.90
29453;DHT22;16424;50.956;5.320;2023-08-17T14:53:04;22.90;99.90
29453;DHT22;16424;50.956;5.320;2023-08-17T14:55:34;23.10;99.90
29453;DHT22;16424;50.956;5.320;2023-08-17T14:58:00;23.00;99.90
29453;DHT22;16424;50.956;5.320;2023-08-17T15:00:26;22.90;99.90
29453;DHT22;16424;50.956;5.320;2023-08-17T15:02:56;23.00;99.90
29453;DHT22;16424;50.956;5.320;2023-08-17T15:05:23;23.00;99.90
29453;DHT22;16424;50.956;5.320;2023-08-17T15:07:48;23.20;99.90
29453;DHT22;16424;50.956;5.320;2023-08-17T15:10:14;23.10;99.90
29453;DHT22;16424;50.956;5.320;2023-08-17T15:12:40;23.10;99.90
29453;DHT22;16424;50.956;5.320;2023-08-17T15:15:06;23.10;99.90
29453;DHT22;16424;50.956;5.320;2023-08-17T15:17:32;23.10;99.90
29453;DHT22;16424;50.956;5.320;2023-08-17T15:19:59;22.90;99.90
29453;DHT22;16424;50.956;5.320;2023-08-17T15:22:25;22.80;99.90
29453;DHT22;16424;50.956;5.320;2023-08-17T15:24:52;22.90;99.90
29453;DHT22;16424;50.956;5.320;2023-08-17T15:27:18;23.10;99.90
29453;DHT22;16424;50.956;5.320;2023-08-17T15:29:43;23.20;99.90
29453;DHT22;16424;50.956;5.320;2023-08-17T15:32:09;23.20;99.90